Time;durP1;ratioP1;P1;durP2;ratioP2;P2;SDS_P1;SDS_P2;PMS_P1;PMS_P2;Temp;Humidity;BMP_temperature;BMP_pressure;BME280_temperature;BME280_humidity;BME280_pressure;Samples;Min_cycle;Max_cycle;Signal;HPM_P1;HPM_P2
2022/05/03 00:01:07;;;;;;;10.60;9.70;;;;;;;9.41;100.00;100095.34;5055441;28;20705;-51
2022/05/03 00:04:07;;;;;;;11.03;10.13;;;;;;;9.35;100.00;100089.38;5048756;28;20221;-51
2022/05/03 00:06:38;;;;;;;11.63;10.60;;;;;;;9.32;100.00;100094.53;5041354;28;20210;-49
2022/05/03 00:09:06;;;;;;;12.03;10.77;;;;;;;9.28;100.00;100091.13;5049968;28;20194;-50
2022/05/03 00:11:39;;;;;;;11.33;10.13;;;;;;;9.25;100.00;100085.97;5051148;28;20198;-50
2022/05/03 00:14:24;;;;;;;11.93;10.77;;;;;;;9.25;100.00;100086.81;5047844;28;20195;-50
2022/05/03 00:16:53;;;;;;;11.53;10.43;;;;;;;9.26;100.00;100092.88;5050907;28;20240;-50
2022/05/03 00:19:18;;;;;;;12.80;11.60;;;;;;;9.21;100.00;100087.72;5050336;28;20210;-49
2022/05/03 00:21:44;;;;;;;11.57;10.47;;;;;;;9.19;100.00;100084.31;5044335;28;20271;-50
2022/05/03 00:24:09;;;;;;;12.03;10.80;;;;;;;9.18;100.00;100084.28;5047046;28;20239;-50
2022/05/03 00:26:35;;;;;;;11.80;10.90;;;;;;;9.19;100.00;100086.00;5049727;28;20730;-50
2022/05/03 00:29:02;;;;;;;11.67;10.67;;;;;;;9.20;100.00;100075.69;5049303;28;20212;-49
2022/05/03 00:31:28;;;;;;;10.90;9.90;;;;;;;9.21;100.00;100080.00;5048279;28;20193;-49
2022/05/03 00:33:54;;;;;;;11.20;10.20;;;;;;;9.21;100.00;100071.38;5047664;28;20190;-49
2022/05/03 00:36:20;;;;;;;10.97;9.77;;;;;;;9.23;100.00;100072.22;5047392;28;20268;-50
2022/05/03 00:38:46;;;;;;;11.17;10.10;;;;;;;9.21;100.00;100080.00;5049510;28;20209;-49
2022/05/03 00:41:18;;;;;;;10.07;9.27;;;;;;;9.18;100.00;100080.00;5050976;28;20181;-49
2022/05/03 00:43:53;;;;;;;10.07;9.27;;;;;;;9.11;100.00;100070.56;5048366;28;20192;-49
2022/05/03 00:46:25;;;;;;;10.20;9.40;;;;;;;9.04;100.00;100069.75;5046278;28;20288;-50
2022/05/03 00:49:28;;;;;;;10.23;9.50;;;;;;;9.00;100.00;100068.03;5044952;28;20591;-50
2022/05/03 00:52:16;;;;;;;9.80;9.10;;;;;;;8.99;100.00;100071.53;5025695;28;20190;-50
2022/05/03 00:55:16;;;;;;;10.83;10.03;;;;;;;8.94;100.00;100073.25;5042742;28;20226;-49
2022/05/03 00:57:45;;;;;;;11.13;10.23;;;;;;;8.89;100.00;100072.41;5048289;28;20205;-49
2022/05/03 01:00:14;;;;;;;11.40;10.40;;;;;;;8.81;100.00;100070.75;5045245;28;20250;-50
2022/05/03 01:02:57;;;;;;;11.70;10.60;;;;;;;8.78;100.00;100064.72;5043683;28;20222;-49
2022/05/03 01:05:27;;;;;;;10.17;9.37;;;;;;;8.77;100.00;100063.88;5047575;28;20202;-50
2022/05/03 01:08:07;;;;;;;11.23;10.30;;;;;;;8.77;100.00;100074.22;5045501;28;20699;-50
2022/05/03 01:10:50;;;;;;;10.27;9.37;;;;;;;8.78;100.00;100070.75;5050179;28;20204;-49
2022/05/03 01:13:33;;;;;;;10.37;9.57;;;;;;;8.79;100.00;100067.31;5047854;28;20664;-49
2022/05/03 01:16:02;;;;;;;10.33;9.53;;;;;;;8.77;100.00;100063.03;5048408;28;20683;-49
2022/05/03 01:18:40;;;;;;;10.77;9.90;;;;;;;8.74;100.00;100058.72;5043703;28;20367;-51
2022/05/03 01:21:27;;;;;;;10.60;9.70;;;;;;;8.72;100.00;100068.19;5048778;28;20204;-50
2022/05/03 01:24:07;;;;;;;9.83;9.13;;;;;;;8.68;100.00;100069.94;5051402;28;20185;-50
2022/05/03 01:27:04;;;;;;;10.43;9.67;;;;;;;8.64;100.00;100069.97;5046515;28;20217;-50
2022/05/03 01:29:31;;;;;;;10.60;9.60;;;;;;;8.58;100.00;100068.28;5037914;28;20747;-50
2022/05/03 01:32:08;;;;;;;10.60;9.70;;;;;;;8.54;100.00;100066.56;5047570;28;20190;-49
2022/05/03 01:34:35;;;;;;;10.17;9.27;;;;;;;8.50;100.00;100060.56;5048488;28;20195;-50
2022/05/03 01:37:00;;;;;;;9.60;8.80;;;;;;;8.48;100.00;100053.69;5046343;28;20683;-50
2022/05/03 01:39:28;;;;;;;10.53;9.63;;;;;;;8.46;100.00;100060.56;5047574;28;20220;-50
2022/05/03 01:42:31;;;;;;;10.57;9.77;;;;;;;8.43;100.00;100063.16;5052200;28;20244;-51
2022/05/03 01:45:10;;;;;;;11.17;10.17;;;;;;;8.37;100.00;100059.72;5048798;28;20216;-50
2022/05/03 01:48:04;;;;;;;10.87;9.97;;;;;;;8.33;100.00;100054.59;5046176;28;20218;-50
2022/05/03 01:50:32;;;;;;;10.27;9.43;;;;;;;8.28;100.00;100054.59;4999647;28;20225;-51
2022/05/03 01:53:28;;;;;;;10.27;9.47;;;;;;;8.25;100.00;100059.78;5047550;28;20296;-51
2022/05/03 01:56:15;;;;;;;10.03;9.33;;;;;;;8.23;100.00;100064.94;5042713;28;20217;-50
2022/05/03 01:59:17;;;;;;;10.23;9.43;;;;;;;8.17;100.00;100062.38;5051807;28;20203;-50
2022/05/03 02:01:43;;;;;;;9.90;9.10;;;;;;;8.14;100.00;100056.38;5043312;28;20536;-50
2022/05/03 02:04:30;;;;;;;10.20;9.30;;;;;;;8.11;100.00;100057.22;5047711;28;20198;-50
2022/05/03 02:06:55;;;;;;;10.03;9.23;;;;;;;8.11;100.00;100058.94;5047207;28;20210;-50
2022/05/03 02:10:00;;;;;;;10.10;9.30;;;;;;;8.10;100.00;100055.50;5049470;28;20185;-49
2022/05/03 02:12:26;;;;;;;10.73;9.80;;;;;;;8.07;100.00;100061.53;5039566;28;20192;-49
2022/05/03 02:14:53;;;;;;;10.43;9.63;;;;;;;8.09;100.00;100061.53;5048880;28;20656;-50
2022/05/03 02:17:43;;;;;;;10.70;9.80;;;;;;;8.07;100.00;100064.09;5048103;28;20200;-50
2022/05/03 02:20:27;;;;;;;10.93;9.93;;;;;;;8.06;100.00;100069.28;5042808;28;20220;-49
2022/05/03 02:23:18;;;;;;;11.20;10.30;;;;;;;8.02;100.00;100063.25;5048761;28;20209;-49
2022/05/03 02:25:52;;;;;;;10.67;9.87;;;;;;;8.01;100.00;100071.00;5043316;28;20188;-50
2022/05/03 02:28:38;;;;;;;10.73;9.83;;;;;;;7.98;100.00;100066.72;5043030;28;20774;-49
2022/05/03 02:31:07;;;;;;;10.87;9.97;;;;;;;7.94;100.00;100071.00;5048730;28;20649;-49
2022/05/03 02:33:37;;;;;;;10.93;10.03;;;;;;;7.90;100.00;100066.72;5046829;28;20220;-49
2022/05/03 02:36:06;;;;;;;11.87;10.97;;;;;;;7.89;100.00;100071.88;5047383;28;20185;-49
2022/05/03 02:38:59;;;;;;;11.40;10.50;;;;;;;7.88;100.00;100072.72;5048648;28;20221;-49
2022/05/03 02:41:26;;;;;;;10.30;9.50;;;;;;;7.88;100.00;100071.03;5047836;28;20276;-51
2022/05/03 02:43:52;;;;;;;9.97;9.20;;;;;;;7.86;100.00;100071.91;5048340;28;20193;-49
2022/05/03 02:46:21;;;;;;;10.60;9.70;;;;;;;7.84;100.00;100066.72;5047675;28;20620;-49
2022/05/03 02:49:18;;;;;;;10.60;9.80;;;;;;;7.82;100.00;100076.16;5046870;28;20182;-49
2022/05/03 02:52:04;;;;;;;10.40;9.60;;;;;;;7.80;100.00;100067.59;5044026;28;20220;-50
2022/05/03 02:54:39;;;;;;;10.23;9.43;;;;;;;7.76;100.00;100059.00;5048278;28;20192;-50
2022/05/03 02:57:19;;;;;;;10.37;9.57;;;;;;;7.73;100.00;100069.31;5047573;28;20216;-50
2022/05/03 03:03:05;;;;;;;10.73;9.83;;;;;;;7.68;100.00;100068.47;5048286;28;20235;-49
2022/05/03 03:05:32;;;;;;;11.00;10.00;;;;;;;7.65;100.00;100058.16;5044546;28;20193;-49
2022/05/03 03:08:02;;;;;;;10.17;9.40;;;;;;;7.64;100.00;100056.44;5053016;28;20201;-50
2022/05/03 03:10:42;;;;;;;10.77;9.87;;;;;;;7.65;100.00;100065.00;5050513;28;20188;-50
2022/05/03 03:13:26;;;;;;;10.33;9.37;;;;;;;7.66;100.00;100071.88;5050683;28;20621;-50
2022/05/03 03:15:51;;;;;;;10.77;9.87;;;;;;;7.65;100.00;100068.47;5048946;28;20615;-50
2022/05/03 03:18:22;;;;;;;10.63;9.83;;;;;;;7.64;100.00;100066.75;5051259;28;20297;-49
2022/05/03 03:20:54;;;;;;;11.83;10.83;;;;;;;7.62;100.00;100061.59;5050319;28;20196;-52
2022/05/03 03:23:24;;;;;;;10.87;10.07;;;;;;;7.61;100.00;100061.59;5052698;28;20704;-49
2022/05/03 03:25:50;;;;;;;10.63;9.83;;;;;;;7.58;100.00;100062.47;5049594;28;20187;-50
2022/05/03 03:28:20;;;;;;;10.90;10.00;;;;;;;7.56;100.00;100061.59;5049237;28;20827;-53
2022/05/03 03:30:48;;;;;;;10.80;10.00;;;;;;;7.54;100.00;100065.03;5049675;28;20213;-49
2022/05/03 03:33:16;;;;;;;10.23;9.33;;;;;;;7.52;100.00;100059.03;5044251;28;20205;-51
2022/05/03 03:35:44;;;;;;;9.57;8.77;;;;;;;7.50;100.00;100066.75;5049419;28;20265;-51
2022/05/03 03:38:12;;;;;;;10.30;9.40;;;;;;;7.48;100.00;100066.75;5050519;28;20214;-50
2022/05/03 03:40:39;;;;;;;10.77;9.97;;;;;;;7.45;100.00;100066.75;5048621;28;20200;-50
2022/05/03 03:43:06;;;;;;;9.97;9.17;;;;;;;7.42;100.00;100068.47;5051971;28;20187;-50
2022/05/03 03:45:32;;;;;;;10.90;10.00;;;;;;;7.39;100.00;100069.34;5050735;28;20188;-49
2022/05/03 03:48:00;;;;;;;10.77;9.87;;;;;;;7.37;100.00;100065.03;5050749;28;20228;-49
2022/05/03 03:50:26;;;;;;;9.50;8.80;;;;;;;7.34;100.00;100058.16;5049116;28;20198;-50
2022/05/03 03:52:52;;;;;;;9.60;8.90;;;;;;;7.31;100.00;100059.03;5050731;28;20184;-49
2022/05/03 03:55:19;;;;;;;9.80;8.90;;;;;;;7.30;100.00;100062.47;5049698;28;20197;-50
2022/05/03 03:57:45;;;;;;;9.93;9.13;;;;;;;7.31;100.00;100068.44;5048459;28;20293;-49
2022/05/03 04:00:14;;;;;;;8.80;8.20;;;;;;;7.32;100.00;100068.47;5049666;28;20228;-50
2022/05/03 04:02:45;;;;;;;8.67;8.07;;;;;;;7.36;100.00;100071.03;5048952;28;20249;-51
2022/05/03 04:05:22;;;;;;;9.27;8.47;;;;;;;7.40;100.00;100070.19;5049764;28;20656;-50
2022/05/03 04:07:48;;;;;;;9.17;8.37;;;;;;;7.47;100.00;100067.59;5048522;28;20268;-50
2022/05/03 04:10:13;;;;;;;9.60;8.73;;;;;;;7.56;100.00;100073.63;5051138;28;20640;-49
2022/05/03 04:12:40;;;;;;;10.17;9.37;;;;;;;7.65;100.00;100077.91;5050013;28;20189;-49
2022/05/03 04:15:06;;;;;;;10.80;9.90;;;;;;;7.74;100.00;100078.75;5052618;28;20255;-50
2022/05/03 04:17:32;;;;;;;9.17;8.47;;;;;;;7.84;100.00;100083.91;5048225;28;20625;-50
2022/05/03 04:19:58;;;;;;;9.37;8.60;;;;;;;7.97;100.00;100082.16;5051353;28;20210;-50
2022/05/03 04:22:29;;;;;;;9.47;8.70;;;;;;;8.13;100.00;100077.84;5049271;28;20185;-50
2022/05/03 04:24:55;;;;;;;10.03;9.13;;;;;;;8.25;100.00;100072.66;5049164;28;20193;-50
2022/05/03 04:27:21;;;;;;;9.50;8.70;;;;;;;8.38;100.00;100078.66;5048869;28;20219;-50
2022/05/03 04:29:48;;;;;;;10.27;9.47;;;;;;;8.54;100.00;100082.94;5044943;28;20273;-50
2022/05/03 04:32:13;;;;;;;10.27;9.37;;;;;;;8.65;100.00;100082.84;5049149;28;20671;-50
2022/05/03 04:34:38;;;;;;;9.27;8.47;;;;;;;8.73;100.00;100084.56;5048866;28;20189;-50
2022/05/03 04:37:04;;;;;;;10.87;9.03;;;;;;;8.77;100.00;100078.53;5048980;28;20209;-50
2022/05/03 04:39:30;;;;;;;9.80;8.90;;;;;;;8.82;100.00;100092.25;5047817;28;20297;-50
2022/05/03 04:41:55;;;;;;;9.13;8.47;;;;;;;8.87;100.00;100079.31;5049934;28;20200;-50
2022/05/03 04:44:20;;;;;;;8.93;8.23;;;;;;;8.92;100.00;100081.03;5050719;28;20186;-50
2022/05/03 04:46:46;;;;;;;9.43;8.53;;;;;;;8.98;100.00;100080.97;5048409;28;20218;-50
2022/05/03 04:49:11;;;;;;;9.40;8.50;;;;;;;9.09;100.00;100088.66;5051190;28;20674;-49
2022/05/03 04:51:36;;;;;;;9.10;8.30;;;;;;;9.23;100.00;100087.72;5047031;28;20202;-49
2022/05/03 04:54:02;;;;;;;9.10;8.40;;;;;;;9.36;100.00;100085.91;5042196;28;20671;-49
2022/05/03 04:56:27;;;;;;;8.30;7.67;;;;;;;9.44;100.00;100082.41;5049010;28;20974;-50
2022/05/03 04:58:56;;;;;;;8.73;7.93;;;;;;;9.51;100.00;100090.97;5049279;28;21000;-50
2022/05/03 05:01:23;;;;;;;7.67;7.10;;;;;;;9.58;100.00;100097.78;5043761;28;20321;-49
2022/05/03 05:03:48;;;;;;;8.20;7.40;;;;;;;9.65;100.00;100093.41;5047579;28;20636;-49
2022/05/03 05:06:14;;;;;;;8.47;7.67;;;;;;;9.72;100.00;100096.81;5050165;28;20186;-49
2022/05/03 05:08:41;;;;;;;7.87;7.17;;;;;;;9.84;100.00;100103.59;5045926;28;20178;-50
2022/05/03 05:11:08;;;;;;;8.73;8.03;;;;;;;9.95;100.00;100106.09;5048296;28;20600;-50
2022/05/03 05:13:36;;;;;;;9.30;8.40;;;;;;;10.03;100.00;100097.41;5047631;28;20258;-49
2022/05/03 05:16:02;;;;;;;8.90;8.10;;;;;;;10.16;100.00;100103.28;5049309;28;20186;-49
2022/05/03 05:18:30;;;;;;;8.20;7.60;;;;;;;10.35;100.00;100100.50;5045101;28;20219;-49
2022/05/03 05:20:56;;;;;;;7.97;7.27;;;;;;;10.68;100.00;100104.47;5046402;28;20298;-49
2022/05/03 05:23:21;;;;;;;7.87;7.20;;;;;;;10.98;100.00;100107.53;5044202;28;20583;-49
2022/05/03 05:25:47;;;;;;;8.47;7.73;;;;;;;11.09;100.00;100112.56;5042500;28;20182;-50
2022/05/03 05:28:14;;;;;;;8.47;7.77;;;;;;;11.62;100.00;100108.34;5045005;28;20210;-49
2022/05/03 05:30:41;;;;;;;7.80;7.03;;;;;;;12.63;100.00;100113.47;5043805;28;20237;-48
2022/05/03 05:33:07;;;;;;;8.73;6.57;;;;;;;13.63;100.00;100108.69;5036929;28;20629;-48
2022/05/03 05:35:32;;;;;;;7.43;6.80;;;;;;;14.45;100.00;100111.75;5035311;28;20207;-49
2022/05/03 05:37:57;;;;;;;7.73;7.03;;;;;;;15.12;97.84;100102.91;5037697;28;20272;-48
2022/05/03 05:40:23;;;;;;;8.13;7.33;;;;;;;15.67;95.38;100110.72;5044453;28;20239;-51
2022/05/03 05:42:49;;;;;;;12.57;7.67;;;;;;;16.07;93.56;100112.91;5044770;28;20269;-49
2022/05/03 05:45:16;;;;;;;7.30;6.40;;;;;;;16.66;91.85;100110.81;5044053;28;20205;-49
2022/05/03 05:47:42;;;;;;;8.30;6.67;;;;;;;16.74;90.86;100112.22;5041003;28;20221;-49
2022/05/03 05:50:09;;;;;;;7.30;6.73;;;;;;;16.50;91.71;100107.94;5044282;28;20209;-49
2022/05/03 05:55:18;;;;;;;6.87;6.27;;;;;;;16.65;91.19;100116.94;5042079;28;20228;-50
2022/05/03 05:57:44;;;;;;;9.30;6.60;;;;;;;16.54;91.21;100118.19;5043641;28;20203;-50
2022/05/03 06:00:09;;;;;;;7.30;6.57;;;;;;;16.51;91.52;100120.09;5045097;28;20301;-49
2022/05/03 06:02:35;;;;;;;7.07;6.47;;;;;;;16.98;90.48;100114.00;5043162;28;20188;-49
2022/05/03 06:05:00;;;;;;;7.57;6.90;;;;;;;17.26;89.16;100119.03;5041799;28;20222;-48
2022/05/03 06:07:26;;;;;;;7.67;6.87;;;;;;;17.52;88.32;100117.13;5047429;28;20207;-48
2022/05/03 06:09:52;;;;;;;8.20;6.77;;;;;;;17.72;87.78;100118.91;5045123;28;20210;-49
2022/05/03 06:12:17;;;;;;;7.33;6.70;;;;;;;18.28;86.75;100125.31;5042839;28;20216;-49
2022/05/03 06:14:43;;;;;;;8.53;7.60;;;;;;;18.75;84.48;100112.75;5044114;28;20196;-49
2022/05/03 06:17:08;;;;;;;9.33;8.40;;;;;;;19.15;83.11;100118.78;5040656;28;20301;-50
2022/05/03 06:19:33;;;;;;;8.30;7.47;;;;;;;19.52;81.77;100118.78;5042686;28;20211;-49
2022/05/03 06:21:59;;;;;;;7.43;6.73;;;;;;;20.00;80.94;100105.94;5043482;28;20201;-51
2022/05/03 06:24:24;;;;;;;8.50;7.80;;;;;;;20.30;79.62;100104.41;5042552;28;20201;-50
2022/05/03 06:26:49;;;;;;;7.70;6.90;;;;;;;20.65;79.00;100107.78;5045142;28;20298;-50
2022/05/03 06:29:16;;;;;;;7.43;6.83;;;;;;;20.95;78.41;100103.59;5043778;28;20199;-50
2022/05/03 06:31:44;;;;;;;7.80;7.10;;;;;;;21.21;77.30;100109.19;5037823;28;20196;-50
2022/05/03 06:34:10;;;;;;;6.40;6.00;;;;;;;21.53;76.77;100099.47;5042570;28;20190;-50
2022/05/03 06:36:37;;;;;;;6.73;6.23;;;;;;;21.82;75.29;100104.84;5044216;28;20215;-50
2022/05/03 06:39:05;;;;;;;6.83;6.30;;;;;;;21.81;74.76;100104.91;5043769;28;20210;-48
2022/05/03 06:41:32;;;;;;;7.03;6.43;;;;;;;21.86;74.52;100111.59;5043047;28;20191;-48
2022/05/03 06:43:58;;;;;;;6.90;6.37;;;;;;;21.78;74.46;100101.53;5048058;28;20190;-51
2022/05/03 06:46:24;;;;;;;7.13;6.43;;;;;;;21.91;73.74;100108.72;5044902;28;20179;-48
2022/05/03 06:48:49;;;;;;;7.37;6.87;;;;;;;21.95;73.57;100115.50;5048376;28;20211;-48
2022/05/03 06:51:15;;;;;;;7.37;6.67;;;;;;;22.03;73.27;100117.66;5043145;28;20985;-51
2022/05/03 06:53:41;;;;;;;7.23;6.70;;;;;;;22.15;72.84;100116.09;5047763;28;20712;-50
2022/05/03 06:56:09;;;;;;;7.57;7.07;;;;;;;21.99;71.86;100116.19;5044147;28;20706;-50
2022/05/03 06:58:35;;;;;;;7.13;6.63;;;;;;;22.02;72.14;100114.19;5048152;28;20210;-50
2022/05/03 07:01:08;;;;;;;7.67;7.07;;;;;;;22.05;71.72;100121.06;5052079;28;20443;-50
2022/05/03 07:03:34;;;;;;;6.83;6.33;;;;;;;22.10;72.01;100115.50;5044712;28;20240;-49
2022/05/03 07:05:59;;;;;;;6.57;6.07;;;;;;;22.28;71.64;100124.94;5044381;28;20186;-51
2022/05/03 07:08:24;;;;;;;7.33;6.83;;;;;;;22.17;71.35;100124.75;5046943;28;20209;-49
2022/05/03 07:10:50;;;;;;;7.83;7.13;;;;;;;22.04;71.28;100122.84;5046047;28;20193;-48
2022/05/03 07:13:15;;;;;;;7.33;6.73;;;;;;;22.05;71.70;100126.31;5044456;28;20191;-49
2022/05/03 07:15:42;;;;;;;8.03;7.33;;;;;;;21.86;71.53;100130.06;5042782;28;20289;-49
2022/05/03 07:23:35;;;;;;;8.67;7.50;;;;;;;22.29;71.43;100137.19;5047800;28;20190;-50
2022/05/03 07:26:00;;;;;;;8.27;7.47;;;;;;;22.18;71.45;100132.56;5047171;28;20187;-49
2022/05/03 07:28:26;;;;;;;9.97;7.27;;;;;;;22.36;71.65;100140.28;5046081;28;20202;-48
2022/05/03 07:30:51;;;;;;;7.77;7.17;;;;;;;22.31;71.41;100137.94;5044732;28;20183;-49
2022/05/03 07:33:17;;;;;;;8.43;7.80;;;;;;;22.21;71.34;100139.44;5041724;28;20740;-49
2022/05/03 07:35:42;;;;;;;7.73;7.03;;;;;;;22.32;71.59;100133.50;5044321;28;20629;-49
2022/05/03 07:38:08;;;;;;;7.93;7.23;;;;;;;22.13;71.60;100133.78;5046357;28;20222;-49
2022/05/03 07:40:34;;;;;;;8.43;7.73;;;;;;;21.92;72.10;100140.25;5042736;28;20178;-49
2022/05/03 07:42:59;;;;;;;7.57;6.97;;;;;;;21.89;72.61;100123.78;5043981;28;20194;-49
2022/05/03 07:45:24;;;;;;;8.07;7.47;;;;;;;21.74;73.04;100134.28;5039989;28;20213;-49
2022/05/03 07:47:50;;;;;;;8.13;7.53;;;;;;;21.47;73.32;100129.63;5042623;28;20250;-49
2022/05/03 07:50:15;;;;;;;9.03;8.13;;;;;;;21.24;73.83;100128.31;5047082;28;20186;-49
2022/05/03 07:52:41;;;;;;;8.63;7.93;;;;;;;20.96;74.52;100135.09;5045528;28;20246;-49
2022/05/03 07:55:08;;;;;;;9.10;8.40;;;;;;;20.79;74.87;100129.91;5046245;28;20194;-49
2022/05/03 07:57:33;;;;;;;9.07;8.17;;;;;;;20.49;76.00;100128.81;5051356;28;20625;-49
2022/05/03 07:59:59;;;;;;;8.30;7.60;;;;;;;20.21;76.99;100130.25;5048155;28;20235;-48
2022/05/03 08:02:25;;;;;;;8.33;7.73;;;;;;;20.32;76.81;100134.97;5050034;28;20265;-49
2022/05/03 08:04:52;;;;;;;7.90;7.30;;;;;;;20.18;76.76;100129.56;5052633;28;20655;-49
2022/05/03 08:07:18;;;;;;;8.90;8.10;;;;;;;19.87;77.28;100129.34;5045990;28;20206;-51
2022/05/03 08:09:48;;;;;;;8.00;7.40;;;;;;;19.73;77.11;100135.28;5065119;28;20189;-49
2022/05/03 08:12:16;;;;;;;8.63;7.93;;;;;;;19.66;77.89;100123.38;5044556;28;20316;-49
2022/05/03 08:14:43;;;;;;;7.70;7.03;;;;;;;19.67;78.33;100137.31;5045001;28;20734;-50
2022/05/03 08:17:09;;;;;;;7.67;7.07;;;;;;;19.66;78.21;100131.25;5044873;28;20277;-50
2022/05/03 08:19:35;;;;;;;8.33;7.73;;;;;;;19.60;77.72;100128.91;5015966;28;20617;-49
2022/05/03 08:22:01;;;;;;;8.47;7.77;;;;;;;19.53;78.12;100130.16;5044307;28;20233;-49
2022/05/03 08:24:28;;;;;;;7.13;6.53;;;;;;;19.68;78.69;100139.91;5041396;28;20186;-50
2022/05/03 08:26:54;;;;;;;7.60;7.00;;;;;;;19.85;78.04;100136.41;5047794;28;20904;-50
2022/05/03 08:29:20;;;;;;;7.70;7.10;;;;;;;19.86;77.39;100135.50;5047080;28;20205;-48
2022/05/03 08:31:46;;;;;;;7.90;7.30;;;;;;;19.98;76.89;100134.06;5045668;28;20179;-51
2022/05/03 08:34:11;;;;;;;7.50;6.90;;;;;;;20.19;76.56;100132.13;5044672;28;20206;-48
2022/05/03 08:36:37;;;;;;;7.43;6.77;;;;;;;20.56;76.03;100139.84;5045228;28;20206;-49
2022/05/03 08:42:06;;;;;;;7.20;6.60;;;;;;;20.91;75.47;100131.00;5043675;28;20268;-51
2022/05/03 08:44:32;;;;;;;6.33;5.73;;;;;;;20.98;75.52;100140.28;5046926;28;20268;-51
2022/05/03 08:47:02;;;;;;;7.33;6.83;;;;;;;20.91;75.22;100134.50;5045254;28;20207;-51
2022/05/03 08:49:43;;;;;;;8.80;8.10;;;;;;;20.97;75.22;100139.41;5046762;28;20267;-51
2022/05/03 08:52:09;;;;;;;6.97;6.43;;;;;;;20.83;76.23;100131.44;5046746;28;20190;-51
2022/05/03 08:54:39;;;;;;;6.40;5.90;;;;;;;20.93;76.42;100139.66;5049064;28;20187;-51
2022/05/03 08:57:06;;;;;;;7.43;6.83;;;;;;;21.10;75.85;100138.75;5042415;28;20212;-51
2022/05/03 08:59:34;;;;;;;7.30;6.70;;;;;;;21.12;75.21;100135.09;5049290;28;20569;-51
2022/05/03 09:01:59;;;;;;;8.13;7.30;;;;;;;20.98;75.28;100145.53;5041831;28;20182;-48
2022/05/03 09:04:25;;;;;;;7.53;6.93;;;;;;;20.99;75.96;100140.19;5042768;28;20640;-51
2022/05/03 09:06:50;;;;;;;7.00;6.50;;;;;;;21.02;75.68;100141.81;5040999;28;20234;-50
2022/05/03 09:09:20;;;;;;;7.57;6.97;;;;;;;20.86;76.27;100144.41;5040377;28;20183;-50
2022/05/03 09:11:48;;;;;;;7.93;7.03;;;;;;;20.86;76.36;100142.66;5044733;28;20221;-50
2022/05/03 09:14:34;;;;;;;8.03;7.33;;;;;;;20.82;76.08;100148.13;5042797;28;20186;-50
2022/05/03 09:16:59;;;;;;;8.27;7.57;;;;;;;;;;5039000;28;20237;-50
2022/05/03 09:19:25;;;;;;;8.50;7.73;;;;;;;20.95;76.63;100143.91;5043241;28;20234;-50
2022/05/03 09:25:04;;;;;;;7.30;6.80;;;;;;;21.29;75.71;100138.56;5039307;28;20229;-50
2022/05/03 09:27:31;;;;;;;7.53;6.80;;;;;;;21.43;75.48;100143.03;5044960;28;20199;-50
2022/05/03 09:30:10;;;;;;;7.53;6.93;;;;;;;21.43;74.82;100136.00;5047167;28;20660;-50
2022/05/03 09:32:42;;;;;;;6.67;6.10;;;;;;;21.41;75.42;100132.59;5045100;28;20542;-50
2022/05/03 09:35:31;;;;;;;6.77;6.23;;;;;;;21.52;75.31;100145.16;5047022;28;20187;-51
2022/05/03 09:37:56;;;;;;;6.77;6.17;;;;;;;21.42;75.01;100134.31;5033271;28;20199;-50
2022/05/03 09:40:22;;;;;;;6.63;6.03;;;;;;;21.47;74.38;100140.16;5036099;28;20217;-51
2022/05/03 09:42:55;;;;;;;7.07;6.50;;;;;;;21.14;74.33;100137.63;5041722;28;20805;-51
2022/05/03 09:45:22;;;;;;;6.30;5.73;;;;;;;21.10;73.79;100136.13;5040384;28;20518;-51
2022/05/03 09:47:51;;;;;;;7.27;6.57;;;;;;;20.59;75.76;100133.56;5040290;28;20210;-51
2022/05/03 09:50:32;;;;;;;7.27;6.57;;;;;;;20.79;75.97;100127.28;5040834;28;20179;-52
2022/05/03 09:53:07;;;;;;;7.83;7.13;;;;;;;20.88;76.31;100126.78;5041691;28;20190;-51
2022/05/03 09:55:36;;;;;;;7.63;7.03;;;;;;;20.95;74.95;100122.84;5043979;28;20193;-51
2022/05/03 09:58:07;;;;;;;6.87;6.27;;;;;;;20.88;76.02;100116.25;5039076;28;20206;-51
2022/05/03 10:00:34;;;;;;;6.77;6.23;;;;;;;20.81;75.09;100117.50;5041413;28;20288;-51
2022/05/03 10:03:01;;;;;;;7.57;6.70;;;;;;;20.67;76.29;100108.56;5040286;28;20191;-51
2022/05/03 10:05:27;;;;;;;7.17;6.57;;;;;;;20.60;75.63;100111.59;5044326;28;20281;-51
2022/05/03 10:07:54;;;;;;;6.70;6.10;;;;;;;20.63;75.17;100114.06;5041110;28;20679;-50
2022/05/03 10:10:21;;;;;;;5.87;5.37;;;;;;;20.62;75.64;100107.97;5040860;28;20197;-50
2022/05/03 10:12:49;;;;;;;5.37;4.97;;;;;;;20.40;75.48;100110.91;5043818;28;20204;-49
2022/05/03 10:20:35;;;;;;;5.20;4.80;;;;;;;20.31;75.53;100114.88;5041504;28;20272;-50
2022/05/03 10:20:57;;;;;;;6.00;5.50;;;;;;;20.46;75.25;100115.81;5041230;28;20281;-49
2022/05/03 10:23:25;;;;;;;5.60;5.20;;;;;;;20.33;75.23;100115.63;5038242;28;20197;-49
2022/05/03 10:25:54;;;;;;;5.43;4.60;;;;;;;20.57;75.17;100112.63;5041957;28;20194;-51
2022/05/03 10:28:20;;;;;;;6.43;5.90;;;;;;;20.44;74.03;100114.22;5041085;28;20249;-51
2022/05/03 10:31:04;;;;;;;6.50;5.87;;;;;;;20.27;75.62;100117.75;5041144;28;20214;-49
2022/05/03 10:33:29;;;;;;;5.67;5.17;;;;;;;20.52;75.07;100105.00;5040965;28;20244;-51
2022/05/03 10:35:54;;;;;;;6.67;6.07;;;;;;;20.82;74.38;100100.78;5044780;28;20179;-51
2022/05/03 10:38:39;;;;;;;6.40;5.90;;;;;;;20.82;74.07;100103.44;5040831;28;20216;-49
2022/05/03 10:41:08;;;;;;;6.10;5.37;;;;;;;20.84;73.52;100104.19;5042828;28;20182;-50
2022/05/03 10:43:35;;;;;;;5.07;4.67;;;;;;;20.50;71.11;100103.34;5041128;28;20194;-49
2022/05/03 10:46:10;;;;;;;5.47;5.07;;;;;;;20.58;72.22;100095.06;5043037;28;20228;-49
2022/05/03 10:48:36;;;;;;;4.83;4.43;;;;;;;20.76;71.01;100094.09;5037258;28;20198;-49
2022/05/03 10:51:05;;;;;;;7.10;6.40;;;;;;;20.90;72.62;100090.72;5037728;28;20194;-51
2022/05/03 10:53:33;;;;;;;6.53;5.60;;;;;;;21.10;72.62;100096.66;5040658;28;20195;-49
2022/05/03 10:56:19;;;;;;;5.70;4.77;;;;;;;21.33;72.38;100090.06;5035733;28;20199;-50
2022/05/03 10:59:05;;;;;;;4.30;4.00;;;;;;;21.43;69.99;100086.00;5039694;28;20203;-49
2022/05/03 11:01:30;;;;;;;5.27;4.70;;;;;;;21.37;70.09;100077.59;5034518;28;20185;-49
2022/05/03 11:03:58;;;;;;;5.10;4.70;;;;;;;21.44;69.53;100077.16;5042539;28;20731;-49
2022/05/03 11:06:25;;;;;;;4.83;4.43;;;;;;;21.52;69.75;100078.47;5043720;28;20660;-49
2022/05/03 11:11:43;;;;;;;4.67;4.37;;;;;;;21.10;69.06;100076.44;5040531;28;20221;-49
2022/05/03 11:14:12;;;;;;;4.50;3.63;;;;;;;21.25;69.28;100073.88;5039507;28;20193;-49
2022/05/03 11:16:37;;;;;;;4.00;3.60;;;;;;;21.40;68.01;100067.72;5040110;28;20261;-49
2022/05/03 11:19:14;;;;;;;4.97;4.47;;;;;;;21.13;67.92;100063.13;5047067;28;20211;-50
2022/05/03 11:21:40;;;;;;;4.10;3.80;;;;;;;21.20;69.14;100066.25;5044054;28;20717;-51
2022/05/03 11:24:19;;;;;;;4.20;3.90;;;;;;;21.37;68.59;100067.06;5048997;28;20190;-51
2022/05/03 11:26:46;;;;;;;4.13;3.83;;;;;;;21.56;67.27;100061.56;5048370;28;20306;-49
2022/05/03 11:29:13;;;;;;;4.00;3.60;;;;;;;21.67;67.14;100056.53;5048149;28;20194;-49
2022/05/03 11:31:38;;;;;;;3.80;3.40;;;;;;;21.62;66.93;100051.56;5050284;28;20209;-51
2022/05/03 11:34:06;;;;;;;3.93;3.60;;;;;;;21.71;65.55;100049.31;5048694;28;20633;-51
2022/05/03 11:36:32;;;;;;;4.13;3.53;;;;;;;21.41;66.05;100056.28;5053814;28;20217;-51
2022/05/03 11:38:59;;;;;;;3.43;3.13;;;;;;;21.34;66.55;100056.72;5045035;28;20231;-49
2022/05/03 11:41:27;;;;;;;3.13;2.93;;;;;;;21.42;65.12;100050.06;5042280;28;20195;-49
2022/05/03 11:43:53;;;;;;;3.07;2.87;;;;;;;21.65;65.17;100039.16;5041145;28;20203;-49
2022/05/03 11:46:20;;;;;;;3.90;3.33;;;;;;;21.65;63.60;100047.06;5042716;28;20193;-49
2022/05/03 11:48:52;;;;;;;3.50;3.30;;;;;;;21.56;63.39;100041.34;5044246;28;20275;-49
2022/05/03 11:56:46;;;;;;;3.47;3.17;;;;;;;22.07;62.67;100037.50;5043251;28;20300;-49
2022/05/03 11:59:13;;;;;;;3.30;3.10;;;;;;;22.20;63.14;100038.44;5046495;28;20238;-49
2022/05/03 12:01:38;;;;;;;3.07;2.87;;;;;;;22.18;63.12;100035.03;5058993;28;20601;-49
2022/05/03 12:04:05;;;;;;;3.00;2.80;;;;;;;22.16;62.95;100036.09;5041767;28;20187;-49